createdAt,value
2022-08-10T00:00:30.868Z,100912.19
2022-08-10T00:03:58.798Z,100915.44
2022-08-10T00:07:22.830Z,100914.16
2022-08-10T00:10:47.835Z,100908.91
2022-08-10T00:14:11.881Z,100895.94
2022-08-10T00:17:36.883Z,100894.31
2022-08-10T00:21:00.880Z,100901.94
2022-08-10T00:24:26.819Z,100889.00
2022-08-10T00:28:03.172Z,100889.53
2022-08-10T00:31:27.810Z,100882.47
2022-08-10T00:34:53.873Z,100870.31
2022-08-10T00:38:18.795Z,100872.63
2022-08-10T00:41:42.848Z,100864.50
2022-08-10T00:45:06.846Z,100847.38
2022-08-10T00:48:30.810Z,100855.53
2022-08-10T00:51:54.904Z,100843.00
2022-08-10T00:55:14.458Z,100836.13
2022-08-10T00:58:33.877Z,100844.81
2022-08-10T01:02:08.825Z,100839.66
2022-08-10T01:05:35.955Z,100834.66
2022-08-10T01:09:30.826Z,100838.84
2022-08-10T01:13:31.909Z,100833.00
2022-08-10T01:17:05.854Z,100824.03
2022-08-10T01:20:37.900Z,100826.97
2022-08-10T01:24:10.851Z,100824.53
2022-08-10T01:27:50.890Z,100819.22
2022-08-10T01:31:16.808Z,100808.75
2022-08-10T01:34:49.888Z,100805.13
2022-08-10T01:38:22.841Z,100803.41
2022-08-10T01:41:56.867Z,100803.41
2022-08-10T01:45:22.840Z,100800.34
2022-08-10T01:49:08.892Z,100801.16
2022-08-10T01:52:34.981Z,100808.38
2022-08-10T01:55:54.503Z,100803.44
2022-08-10T01:59:15.874Z,100806.44
2022-08-10T02:02:41.840Z,100794.13
2022-08-10T02:06:08.941Z,100800.19
2022-08-10T02:09:41.942Z,100787.31
2022-08-10T02:13:05.925Z,100794.03
2022-08-10T02:16:29.861Z,100787.53
2022-08-10T02:19:55.919Z,100797.16
2022-08-10T02:23:33.878Z,100799.38
2022-08-10T02:27:00.051Z,100801.69
2022-08-10T02:30:24.866Z,100791.75
2022-08-10T02:33:57.141Z,100788.78
2022-08-10T02:37:21.875Z,100781.84
2022-08-10T02:45:01.818Z,100790.13
2022-08-10T02:45:27.222Z,100782.50
2022-08-10T02:48:57.893Z,100786.44
2022-08-10T02:52:31.901Z,100780.22
2022-08-10T02:56:02.946Z,100782.44
2022-08-10T02:59:40.393Z,100779.16
2022-08-10T03:03:06.975Z,100776.47
2022-08-10T03:06:40.940Z,100777.72
2022-08-10T03:10:05.886Z,100773.19
2022-08-10T03:13:39.939Z,100777.06
2022-08-10T03:17:06.905Z,100772.81
2022-08-10T03:20:34.466Z,100776.63
2022-08-10T03:24:01.927Z,100780.53
2022-08-10T03:27:25.862Z,100782.88
2022-08-10T03:30:49.945Z,100784.41
2022-08-10T03:34:22.307Z,100775.81
2022-08-10T03:37:59.089Z,100785.38
2022-08-10T03:41:26.902Z,100784.59
2022-08-10T03:44:54.960Z,100779.16
2022-08-10T03:48:19.945Z,100789.50
2022-08-10T03:51:43.964Z,100790.53
2022-08-10T03:55:07.967Z,100783.59
2022-08-10T03:58:26.568Z,100801.25
2022-08-10T04:02:46.061Z,100794.63
2022-08-10T04:05:38.532Z,100794.00
2022-08-10T04:09:02.931Z,100786.09
2022-08-10T04:12:27.038Z,100781.03
2022-08-10T04:15:50.995Z,100789.09
2022-08-10T04:19:14.931Z,100786.69
2022-08-10T04:22:41.982Z,100780.22
2022-08-10T04:26:06.893Z,100782.41
2022-08-10T04:29:29.945Z,100788.13
2022-08-10T04:32:54.952Z,100791.38
2022-08-10T04:36:20.925Z,100804.16
2022-08-10T04:39:45.011Z,100803.00
2022-08-10T04:43:12.940Z,100806.78
2022-08-10T04:46:56.234Z,100814.78
2022-08-10T04:50:16.984Z,100826.66
2022-08-10T04:54:05.496Z,100807.63
2022-08-10T04:57:26.964Z,100829.53
2022-08-10T05:00:51.050Z,100836.22
2022-08-10T05:04:36.776Z,100839.47
2022-08-10T05:07:58.974Z,100844.00
2022-08-10T05:11:23.810Z,100846.38
2022-08-10T05:14:49.012Z,100844.59
2022-08-10T05:18:13.953Z,100853.75
2022-08-10T05:22:03.621Z,100866.94
2022-08-10T05:25:26.915Z,100863.03
2022-08-10T05:28:51.962Z,100857.63
2022-08-10T05:32:16.955Z,100860.03
2022-08-10T05:35:56.824Z,100859.28
2022-08-10T05:39:30.569Z,100872.66
2022-08-10T05:42:56.958Z,100879.94
2022-08-10T05:46:22.005Z,100877.94
2022-08-10T05:49:46.026Z,100878.44
2022-08-10T05:53:59.590Z,100883.13
2022-08-10T05:56:58.315Z,100885.41
2022-08-10T06:00:36.865Z,100891.72
2022-08-10T06:04:10.066Z,100898.47
2022-08-10T06:07:38.127Z,100905.75
2022-08-10T06:12:21.912Z,100903.25
2022-08-10T06:15:13.103Z,100899.03
2022-08-10T06:18:45.953Z,100919.59
2022-08-10T06:22:11.033Z,100919.84
2022-08-10T06:29:25.019Z,100924.69
2022-08-10T06:32:48.977Z,100925.91
2022-08-10T06:36:14.996Z,100932.47
2022-08-10T06:39:40.025Z,100936.41
2022-08-10T06:43:05.054Z,100937.03
2022-08-10T06:46:31.971Z,100943.63
2022-08-10T06:50:00.161Z,100947.06
2022-08-10T06:53:53.998Z,100949.22
2022-08-10T06:57:18.452Z,100952.31
2022-08-10T07:00:45.043Z,100959.25
2022-08-10T07:04:32.967Z,100957.59
2022-08-10T07:07:59.001Z,100968.63
2022-08-10T07:11:24.070Z,100966.34
2022-08-10T07:14:48.961Z,100973.72
2022-08-10T07:18:15.002Z,100979.44
2022-08-10T07:21:39.972Z,100982.78
2022-08-10T07:25:06.909Z,100981.34
2022-08-10T07:28:32.012Z,100988.72
2022-08-10T07:31:57.886Z,100986.63
2022-08-10T07:35:23.021Z,100988.59
2022-08-10T07:38:47.026Z,100993.88
2022-08-10T07:42:10.980Z,100987.09
2022-08-10T07:45:37.064Z,100984.34
2022-08-10T07:49:19.017Z,100986.97
2022-08-10T07:52:43.078Z,100999.06
2022-08-10T07:56:26.007Z,101008.19
2022-08-10T07:59:58.057Z,101003.03
2022-08-10T08:03:29.039Z,101022.00
2022-08-10T08:06:54.057Z,101011.22
2022-08-10T08:10:20.034Z,101006.66
2022-08-10T08:13:45.070Z,101025.78
2022-08-10T08:17:08.988Z,101027.22
2022-08-10T08:20:36.019Z,101033.47
2022-08-10T08:24:31.779Z,101036.31
2022-08-10T08:27:50.020Z,101047.31
2022-08-10T08:31:14.009Z,101042.06
2022-08-10T08:34:40.045Z,101051.28
2022-08-10T08:38:29.535Z,101046.78
2022-08-10T08:42:05.067Z,101053.13
2022-08-10T08:46:01.386Z,101061.69
2022-08-10T08:50:07.690Z,101074.25
2022-08-10T08:54:02.071Z,101077.91
2022-08-10T08:57:49.990Z,101075.00
2022-08-10T09:01:46.146Z,101073.19
2022-08-10T09:05:58.562Z,101080.41
2022-08-10T09:09:29.664Z,101088.44
2022-08-10T09:12:50.190Z,101087.09
2022-08-10T09:16:50.012Z,101089.38
2022-08-10T09:20:24.117Z,101101.75
2022-08-10T09:24:05.208Z,101096.00
2022-08-10T09:27:36.125Z,101110.06
2022-08-10T09:31:23.126Z,101109.69
2022-08-10T09:36:24.975Z,101112.22
2022-08-10T09:39:03.008Z,101115.53
2022-08-10T09:43:14.155Z,101122.63
2022-08-10T09:47:04.072Z,101127.81
2022-08-10T09:55:06.070Z,101139.66
2022-08-10T09:58:43.052Z,101137.00
2022-08-10T10:02:29.024Z,101142.38
2022-08-10T10:06:05.111Z,101139.50
2022-08-10T10:09:58.096Z,101141.78
2022-08-10T10:13:42.240Z,101149.19
2022-08-10T10:17:30.051Z,101147.94
2022-08-10T10:21:51.396Z,101150.22
2022-08-10T10:25:19.771Z,101154.94
2022-08-10T10:29:24.814Z,101148.53
2022-08-10T10:32:59.343Z,101144.00
2022-08-10T10:36:24.073Z,101153.88
2022-08-10T10:39:50.233Z,101154.25
2022-08-10T10:43:23.063Z,101163.53
2022-08-10T10:47:21.047Z,101151.00
2022-08-10T10:50:54.067Z,101160.44
2022-08-10T10:54:17.129Z,101159.63
2022-08-10T10:58:08.060Z,101157.59
2022-08-10T11:01:54.140Z,101178.59
2022-08-10T11:05:24.103Z,101179.69
2022-08-10T11:08:58.068Z,101177.00
2022-08-10T11:12:55.226Z,101185.44
2022-08-10T11:16:25.097Z,101184.41
2022-08-10T11:20:00.279Z,101180.06
2022-08-10T11:23:31.082Z,101185.66
2022-08-10T11:27:17.371Z,101188.97
2022-08-10T11:31:08.101Z,101191.41
2022-08-10T11:34:48.170Z,101203.78
2022-08-10T11:39:13.646Z,101205.41
2022-08-10T11:42:59.114Z,101207.69
2022-08-10T11:46:45.062Z,101208.69
2022-08-10T11:50:26.180Z,101200.88
2022-08-10T11:54:13.068Z,101196.31
2022-08-10T11:57:54.250Z,101194.50
2022-08-10T12:01:20.132Z,101201.88
2022-08-10T12:04:44.077Z,101192.81
2022-08-10T12:10:03.448Z,101207.00
2022-08-10T12:11:54.132Z,101208.25
2022-08-10T12:15:26.561Z,101218.97
2022-08-10T12:18:56.106Z,101197.56
2022-08-10T12:22:27.125Z,101221.88
2022-08-10T12:26:18.156Z,101234.84
2022-08-10T12:29:53.072Z,101241.91
2022-08-10T12:33:23.148Z,101232.44
2022-08-10T12:37:02.104Z,101236.13
2022-08-10T12:40:35.470Z,101232.41
2022-08-10T12:44:08.907Z,101220.47
2022-08-10T12:47:53.156Z,101226.44
2022-08-10T12:51:22.080Z,101231.38
2022-08-10T12:54:50.144Z,101234.06
2022-08-10T12:58:59.194Z,101243.72
2022-08-10T13:02:10.596Z,101243.31
2022-08-10T13:06:02.667Z,101246.44
2022-08-10T13:09:22.209Z,101233.44
2022-08-10T13:12:47.374Z,101242.53
2022-08-10T13:16:13.126Z,101237.94
2022-08-10T13:19:38.654Z,101245.34
2022-08-10T13:23:32.126Z,101246.63
2022-08-10T13:27:26.158Z,101249.69
2022-08-10T13:30:52.167Z,101254.28
2022-08-10T13:34:43.766Z,101257.31
2022-08-10T13:38:10.103Z,101253.59
2022-08-10T13:41:35.177Z,101251.13
2022-08-10T13:45:09.159Z,101251.16
2022-08-10T13:48:34.126Z,101253.81
2022-08-10T13:51:58.533Z,101246.19
2022-08-10T13:55:54.285Z,101250.69
2022-08-10T13:59:16.315Z,101258.34
2022-08-10T14:02:56.170Z,101259.78
2022-08-10T14:06:21.161Z,101247.81
2022-08-10T14:09:48.139Z,101263.06
2022-08-10T14:13:13.161Z,101258.53
2022-08-10T14:16:38.217Z,101251.59
2022-08-10T14:20:10.607Z,101260.59
2022-08-10T14:23:40.193Z,101250.72
2022-08-10T14:27:06.183Z,101256.69
2022-08-10T14:30:32.194Z,101253.59
2022-08-10T14:34:06.189Z,101257.09
2022-08-10T14:37:45.102Z,101257.31
2022-08-10T14:41:12.157Z,101252.75
2022-08-10T14:44:36.173Z,101257.31
2022-08-10T14:48:03.795Z,101258.94
2022-08-10T14:51:44.041Z,101267.59
2022-08-10T14:55:19.529Z,101258.13
2022-08-10T14:58:58.926Z,101273.38
2022-08-10T15:02:38.720Z,101284.13
2022-08-10T15:06:05.182Z,101282.91
2022-08-10T15:09:59.519Z,101287.03
2022-08-10T15:13:34.506Z,101291.56
2022-08-10T15:16:59.462Z,101300.22
2022-08-10T15:20:37.328Z,101277.97
2022-08-10T15:24:10.106Z,101287.03
2022-08-10T15:27:34.198Z,101297.56
2022-08-10T15:31:12.181Z,101298.19
2022-08-10T15:34:56.176Z,101307.22
2022-08-10T15:38:20.181Z,101303.09
2022-08-10T15:41:59.230Z,101307.63
2022-08-10T15:45:32.198Z,101303.09
2022-08-10T15:49:26.150Z,101309.31
2022-08-10T15:53:01.015Z,101309.06
2022-08-10T15:56:34.133Z,101311.56
2022-08-10T16:00:20.181Z,101307.22
2022-08-10T16:04:15.204Z,101304.94
2022-08-10T16:08:08.159Z,101301.66
2022-08-10T16:11:37.860Z,101310.06
2022-08-10T16:15:07.994Z,101311.31
2022-08-10T16:18:27.001Z,101315.22
2022-08-10T16:21:45.169Z,101309.03
2022-08-10T16:25:08.191Z,101299.97
2022-08-10T16:28:33.205Z,101313.34
2022-08-10T16:32:13.156Z,101309.63
2022-08-10T16:35:37.220Z,101316.22
2022-08-10T16:39:03.219Z,101315.22
2022-08-10T16:42:39.605Z,101307.97
2022-08-10T16:46:09.155Z,101317.28
2022-08-10T16:49:34.237Z,101321.16
2022-08-10T16:52:59.162Z,101312.94
2022-08-10T16:56:24.200Z,101319.16
2022-08-10T16:59:54.190Z,101334.19
2022-08-10T17:04:04.763Z,101331.13
2022-08-10T17:07:15.194Z,101336.06
2022-08-10T17:10:39.252Z,101344.72
2022-08-10T17:14:03.147Z,101332.56
2022-08-10T17:17:37.266Z,101343.47
2022-08-10T17:20:54.796Z,101345.97
2022-08-10T17:24:15.188Z,101354.00
2022-08-10T17:28:05.413Z,101355.44
2022-08-10T17:31:54.188Z,101355.03
2022-08-10T17:35:16.121Z,101367.41
2022-08-10T17:38:44.243Z,101374.44
2022-08-10T17:42:10.187Z,101379.75
2022-08-10T17:45:49.124Z,101395.84
2022-08-10T17:49:13.187Z,101396.69
2022-08-10T17:52:38.232Z,101398.97
2022-08-10T17:56:03.247Z,101405.78
2022-08-10T17:59:27.225Z,101386.00
2022-08-10T18:02:55.262Z,101409.91
2022-08-10T18:06:21.234Z,101404.53
2022-08-10T18:09:52.296Z,101417.91
2022-08-10T18:13:16.206Z,101408.63
2022-08-10T18:16:44.188Z,101427.00
2022-08-10T18:20:14.237Z,101430.31
2022-08-10T18:23:36.941Z,101435.91
2022-08-10T18:26:58.227Z,101440.22
2022-08-10T18:30:22.244Z,101446.19
2022-08-10T18:33:48.219Z,101454.66
2022-08-10T18:37:16.776Z,101466.16
2022-08-10T18:40:43.270Z,101455.22
2022-08-10T18:44:31.226Z,101455.06
2022-08-10T18:48:33.254Z,101458.53
2022-08-10T18:51:59.214Z,101460.59
2022-08-10T18:55:27.315Z,101470.06
2022-08-10T18:59:13.223Z,101471.09
2022-08-10T19:02:59.246Z,101476.19
2022-08-10T19:06:48.241Z,101495.72
2022-08-10T19:10:32.264Z,101500.91
2022-08-10T19:14:23.203Z,101509.53
2022-08-10T19:18:07.034Z,101511.53
2022-08-10T19:21:59.316Z,101520.16
2022-08-10T19:26:38.204Z,101520.59
2022-08-10T19:30:10.269Z,101521.53
2022-08-10T19:33:41.242Z,101513.38
2022-08-10T19:38:00.527Z,101531.59
2022-08-10T19:41:44.878Z,101537.59
2022-08-10T19:46:00.677Z,101526.44
2022-08-10T19:49:23.270Z,101546.75
2022-08-10T19:53:05.247Z,101560.25
2022-08-10T19:56:41.226Z,101570.28
2022-08-10T20:00:28.598Z,101567.44
2022-08-10T20:04:06.237Z,101572.25
2022-08-10T20:07:58.250Z,101573.28
2022-08-10T20:11:45.645Z,101586.31
2022-08-10T20:15:31.257Z,101589.50
2022-08-10T20:19:27.220Z,101591.41
2022-08-10T20:23:33.288Z,101585.63
2022-08-10T20:27:18.044Z,101576.94
2022-08-10T20:30:42.265Z,101591.88
2022-08-10T20:34:13.300Z,101572.91
2022-08-10T20:38:03.819Z,101588.44
2022-08-10T20:41:29.249Z,101595.94
2022-08-10T20:44:57.233Z,101598.97
2022-08-10T20:48:48.291Z,101602.19
2022-08-10T20:52:12.278Z,101614.22
2022-08-10T20:55:47.819Z,101611.81
2022-08-10T20:59:18.284Z,101611.75
2022-08-10T21:02:47.826Z,101622.03
2022-08-10T21:06:43.798Z,101627.06
2022-08-10T21:10:31.317Z,101618.91
2022-08-10T21:14:18.226Z,101617.81
2022-08-10T21:18:08.373Z,101621.16
2022-08-10T21:21:59.230Z,101614.50
2022-08-10T21:25:29.696Z,101620.28
2022-08-10T21:28:50.594Z,101617.25
2022-08-10T21:32:28.280Z,101604.53
2022-08-10T21:36:32.249Z,101615.59
2022-08-10T21:40:35.383Z,101618.44
2022-08-10T21:44:33.300Z,101623.47
2022-08-10T21:48:30.437Z,101625.78
2022-08-10T21:52:24.277Z,101617.84
2022-08-10T21:56:37.334Z,101631.19
2022-08-10T22:00:29.639Z,101627.50
2022-08-10T22:04:14.287Z,101624.66
2022-08-10T22:08:03.258Z,101626.88
2022-08-10T22:11:50.254Z,101625.00
2022-08-10T22:16:10.819Z,101610.19
2022-08-10T22:19:46.288Z,101626.53
2022-08-10T22:24:18.834Z,101619.47
2022-08-10T22:28:12.335Z,101620.44
2022-08-10T22:32:08.298Z,101624.72
2022-08-10T22:36:11.303Z,101630.78
2022-08-10T22:40:29.358Z,101620.06
2022-08-10T22:44:11.303Z,101613.88
2022-08-10T22:47:53.340Z,101622.25
2022-08-10T22:51:36.285Z,101612.50
2022-08-10T22:55:25.299Z,101617.69
2022-08-10T22:58:49.301Z,101617.78
2022-08-10T23:02:21.320Z,101617.97
2022-08-10T23:05:54.042Z,101614.09
2022-08-10T23:09:19.346Z,101614.00
2022-08-10T23:12:50.290Z,101602.50
2022-08-10T23:16:36.303Z,101604.09
2022-08-10T23:20:02.283Z,101604.50
2022-08-10T23:23:36.378Z,101595.47
2022-08-10T23:27:00.321Z,101583.66
2022-08-10T23:30:51.593Z,101598.78
2022-08-10T23:34:09.925Z,101584.91
2022-08-10T23:37:28.294Z,101573.91
2022-08-10T23:40:53.323Z,101557.06
2022-08-10T23:44:20.982Z,101558.03
2022-08-10T23:47:45.333Z,101542.19
2022-08-10T23:51:16.335Z,101548.16
2022-08-10T23:54:41.335Z,101546.41
2022-08-10T23:58:09.309Z,101549.47
